Time;durP1;ratioP1;P1;durP2;ratioP2;P2;SDS_P1;SDS_P2;PMS_P1;PMS_P2;Temp;Humidity;BMP_temperature;BMP_pressure;BME280_temperature;BME280_humidity;BME280_pressure;Samples;Min_cycle;Max_cycle;Signal;HPM_P1;HPM_P2
2022/11/11 00:01:14;;;;;;;53.93;32.37;;;;;;;8.10;82.41;98081.94;5026793;28;20230;-73
2022/11/11 00:04:00;;;;;;;50.53;33.30;;;;;;;8.10;83.38;98080.19;5027988;28;20246;-75
2022/11/11 00:06:46;;;;;;;52.20;31.40;;;;;;;8.10;82.75;98082.78;5030804;28;20234;-74
2022/11/11 00:09:31;;;;;;;55.23;32.57;;;;;;;8.13;82.09;98067.25;5046876;28;20259;-75
2022/11/11 00:12:16;;;;;;;59.93;33.70;;;;;;;8.17;82.58;98081.78;5047231;28;20196;-75
2022/11/11 00:15:04;;;;;;;54.07;31.30;;;;;;;8.24;81.69;98083.34;5047182;28;20196;-77
2022/11/11 00:27:04;;;;;;;55.53;33.43;;;;;;;8.32;81.78;98083.25;5046253;28;20298;-75
2022/11/11 00:29:49;;;;;;;53.93;31.57;;;;;;;8.12;83.12;98081.03;5047234;28;20244;-76
2022/11/11 00:32:34;;;;;;;56.60;32.50;;;;;;;8.14;83.61;98079.25;5047110;28;20250;-76
2022/11/11 00:41:28;;;;;;;58.07;31.03;;;;;;;8.30;81.76;98084.16;5046857;28;20581;-77
2022/11/11 00:44:13;;;;;;;52.43;31.03;;;;;;;8.29;80.75;98083.31;5046083;28;20189;-74
2022/11/11 00:53:12;;;;;;;48.40;29.37;;;;;;;8.13;81.17;98069.84;5051895;28;20582;-73
2022/11/11 00:55:58;;;;;;;45.00;27.70;;;;;;;7.87;80.87;98064.31;5066755;28;20662;-73
2022/11/11 00:58:43;;;;;;;45.80;29.23;;;;;;;7.73;81.90;98063.72;5065420;28;20672;-73
2022/11/11 01:01:29;;;;;;;49.20;27.50;;;;;;;7.71;81.23;98062.03;5065955;28;20195;-73
2022/11/11 01:04:14;;;;;;;48.77;29.10;;;;;;;7.63;81.27;98066.47;5066896;28;20190;-73
2022/11/11 01:07:00;;;;;;;49.47;29.13;;;;;;;7.69;81.46;98062.06;5065887;28;20215;-73
2022/11/11 01:09:46;;;;;;;56.17;30.23;;;;;;;7.46;82.04;98046.16;5066187;28;20218;-73
2022/11/11 01:12:32;;;;;;;57.83;32.43;;;;;;;7.24;83.75;98050.84;5067044;28;20191;-73
2022/11/11 01:15:17;;;;;;;63.33;34.80;;;;;;;7.15;83.95;98053.56;5065766;28;20618;-73
2022/11/11 01:18:03;;;;;;;59.67;34.73;;;;;;;7.05;84.76;98046.84;5066351;28;20183;-73
2022/11/11 01:20:58;;;;;;;67.70;36.23;;;;;;;7.06;86.15;98048.56;5066612;28;20684;-73
2022/11/11 01:23:46;;;;;;;68.13;35.23;;;;;;;7.18;85.67;98044.94;5067756;28;20231;-74
2022/11/11 01:26:31;;;;;;;63.80;34.63;;;;;;;7.40;84.73;98052.28;5070153;28;20272;-73
2022/11/11 01:29:17;;;;;;;57.17;31.97;;;;;;;7.52;83.10;98048.66;5070411;28;20255;-73
2022/11/11 01:32:02;;;;;;;55.07;32.27;;;;;;;7.68;83.39;98037.19;5069514;28;20238;-73
2022/11/11 01:34:48;;;;;;;62.40;33.83;;;;;;;7.85;82.25;98049.78;5070560;28;20218;-74
2022/11/11 01:37:34;;;;;;;61.50;33.50;;;;;;;7.70;83.71;98042.31;5070150;28;20187;-74
2022/11/11 01:40:20;;;;;;;59.40;33.07;;;;;;;7.70;83.64;98032.84;5069683;28;20185;-74
2022/11/11 01:43:05;;;;;;;55.40;31.80;;;;;;;7.80;83.00;98034.38;5070213;28;20271;-74
2022/11/11 01:45:57;;;;;;;60.17;33.37;;;;;;;7.54;82.69;98034.00;5069582;28;20194;-73
2022/11/11 01:51:53;;;;;;;54.37;32.27;;;;;;;7.39;82.91;98042.88;5070228;28;20713;-73
2022/11/11 01:54:44;;;;;;;58.37;31.50;;;;;;;7.53;83.90;98034.88;5069381;28;20206;-73
2022/11/11 01:57:44;;;;;;;56.03;32.40;;;;;;;7.63;81.90;98031.25;5069063;28;20202;-73
2022/11/11 02:00:30;;;;;;;53.60;31.23;;;;;;;7.87;81.71;98028.22;5069938;28;20714;-73
2022/11/11 02:03:20;;;;;;;54.97;31.97;;;;;;;7.91;80.83;98029.03;5069448;28;20603;-74
2022/11/11 02:06:07;;;;;;;55.77;29.27;;;;;;;7.91;79.52;98026.44;5068850;28;20754;-74
2022/11/11 02:08:52;;;;;;;50.30;30.03;;;;;;;7.71;80.27;98034.53;5069775;28;20211;-74
2022/11/11 02:14:48;;;;;;;47.30;29.07;;;;;;;7.51;79.14;98028.03;5068847;28;20203;-75
2022/11/11 02:17:34;;;;;;;49.60;29.40;;;;;;;7.35;80.83;98032.63;5069866;28;20215;-77
2022/11/11 02:20:23;;;;;;;55.40;30.37;;;;;;;7.09;82.76;98030.47;5068647;28;20703;-75
2022/11/11 02:23:31;;;;;;;49.90;29.83;;;;;;;7.24;82.61;98035.38;5068721;28;20693;-75
2022/11/11 02:26:17;;;;;;;53.90;30.27;;;;;;;7.38;82.32;98024.84;5069285;28;20200;-75
2022/11/11 02:29:08;;;;;;;49.80;28.87;;;;;;;7.32;81.68;98032.66;5068937;28;20629;-75
2022/11/11 02:31:54;;;;;;;54.03;30.77;;;;;;;7.28;82.92;98031.88;5068463;28;20219;-74
2022/11/11 02:34:39;;;;;;;57.33;30.43;;;;;;;7.33;83.18;98030.09;5068439;28;20253;-74
2022/11/11 02:37:27;;;;;;;55.67;31.67;;;;;;;7.18;82.86;98022.63;5068242;28;20229;-76
2022/11/11 02:40:20;;;;;;;52.10;28.43;;;;;;;7.28;82.98;98041.31;5068964;28;20198;-75
2022/11/11 02:43:05;;;;;;;47.03;28.93;;;;;;;7.31;81.74;98044.72;5069386;28;20198;-76
2022/11/11 02:45:51;;;;;;;47.37;28.87;;;;;;;7.14;81.24;98038.13;5068263;28;20207;-75
2022/11/11 02:48:37;;;;;;;53.47;29.47;;;;;;;6.91;81.65;98045.38;5068633;28;20235;-74
2022/11/11 02:51:23;;;;;;;52.80;30.57;;;;;;;6.70;84.14;98043.13;5068783;28;20195;-75
2022/11/11 02:54:08;;;;;;;58.73;30.83;;;;;;;6.61;86.38;98050.97;5068037;28;20199;-75
2022/11/11 02:57:06;;;;;;;58.80;33.20;;;;;;;6.55;87.21;98045.03;5067650;28;20240;-74
2022/11/11 02:59:52;;;;;;;61.03;33.93;;;;;;;6.46;87.91;98037.44;5068717;28;20209;-73
2022/11/11 03:02:37;;;;;;;62.03;33.20;;;;;;;6.42;88.09;98046.09;5067879;28;20783;-74
2022/11/11 03:05:23;;;;;;;58.83;34.13;;;;;;;6.57;88.46;98042.44;5068915;28;20266;-73
2022/11/11 03:08:09;;;;;;;58.60;33.27;;;;;;;6.59;88.43;98044.09;5068038;28;20232;-74
2022/11/11 03:10:54;;;;;;;59.60;32.80;;;;;;;6.65;89.16;98037.19;5068141;28;20186;-74
2022/11/11 03:13:40;;;;;;;59.80;33.80;;;;;;;6.76;87.77;98040.47;5068772;28;20182;-74
2022/11/11 03:19:30;;;;;;;66.30;33.73;;;;;;;7.06;88.82;98029.69;5066518;28;20273;-73
2022/11/11 03:22:16;;;;;;;67.67;33.73;;;;;;;7.18;87.93;98042.34;5068509;28;20190;-74
2022/11/11 03:25:37;;;;;;;63.83;34.37;;;;;;;7.27;87.49;98039.66;5067768;28;20195;-74
2022/11/11 03:28:23;;;;;;;58.70;31.90;;;;;;;7.44;86.21;98031.63;5067574;28;20221;-74
2022/11/11 03:31:09;;;;;;;59.63;32.77;;;;;;;7.56;85.57;98037.41;5068371;28;20200;-73
2022/11/11 03:33:54;;;;;;;58.23;33.20;;;;;;;7.69;84.77;98033.72;5067491;28;20261;-73
2022/11/11 03:39:43;;;;;;;54.67;30.23;;;;;;;7.79;84.15;98045.56;5068047;28;20201;-74
2022/11/11 03:42:28;;;;;;;52.70;29.07;;;;;;;7.82;83.87;98035.19;5067384;28;20218;-73
2022/11/11 03:45:13;;;;;;;48.87;28.67;;;;;;;8.00;82.73;98052.03;5067533;28;20199;-75
2022/11/11 03:47:59;;;;;;;50.20;29.23;;;;;;;8.00;81.99;98040.00;5068125;28;20238;-75
2022/11/11 03:50:46;;;;;;;52.30;32.00;;;;;;;8.07;80.76;98043.31;5066876;28;20189;-74
2022/11/11 03:53:32;;;;;;;52.00;28.70;;;;;;;8.08;80.38;98043.28;5067624;28;20622;-74
2022/11/11 03:56:17;;;;;;;54.77;30.73;;;;;;;7.88;79.77;98044.53;5067589;28;20199;-75
2022/11/11 03:59:02;;;;;;;50.10;27.67;;;;;;;7.98;79.87;98043.47;5067100;28;20195;-74
2022/11/11 04:11:27;;;;;;;53.13;30.07;;;;;;;7.35;79.35;98048.94;5066918;28;20659;-74
2022/11/11 04:17:17;;;;;;;56.67;30.17;;;;;;;7.32;80.66;98048.13;5066655;28;20199;-74
2022/11/11 04:23:06;;;;;;;48.73;28.43;;;;;;;7.25;79.24;98047.38;5067440;28;20193;-75
2022/11/11 04:25:54;;;;;;;41.57;25.13;;;;;;;7.34;78.20;98057.53;5066407;28;20199;-77
2022/11/11 04:34:54;;;;;;;51.10;26.70;;;;;;;7.34;78.93;98061.84;5047264;28;20262;-76
2022/11/11 04:37:51;;;;;;;42.93;25.77;;;;;;;7.35;78.76;98055.81;5046475;28;20215;-76
2022/11/11 04:46:44;;;;;;;48.70;27.43;;;;;;;6.94;79.62;98063.34;5046018;28;20202;-77
2022/11/11 04:49:29;;;;;;;46.00;27.00;;;;;;;6.88;80.99;98056.59;5046813;28;20617;-76
2022/11/11 04:52:26;;;;;;;51.67;28.63;;;;;;;6.72;79.83;98067.13;5046616;28;20203;-76
2022/11/11 04:58:18;;;;;;;51.67;29.90;;;;;;;6.79;82.17;98066.16;5046744;28;20256;-75
2022/11/11 05:01:04;;;;;;;52.27;30.70;;;;;;;6.91;81.96;98065.97;5046651;28;20571;-76
2022/11/11 05:03:50;;;;;;;48.00;27.70;;;;;;;6.89;81.88;98063.41;5045816;28;20218;-75
2022/11/11 05:09:44;;;;;;;56.90;32.57;;;;;;;6.96;81.02;98071.91;5046352;28;20209;-76
2022/11/11 05:12:29;;;;;;;49.10;29.80;;;;;;;6.97;82.27;98071.00;5037471;28;20707;-76
2022/11/11 05:21:28;;;;;;;52.73;29.33;;;;;;;6.42;83.05;98063.22;5025998;28;20190;-77
2022/11/11 05:27:20;;;;;;;54.97;28.83;;;;;;;6.59;85.84;98079.31;5026510;28;20603;-76
2022/11/11 05:30:07;;;;;;;56.23;30.50;;;;;;;6.66;85.96;98085.22;5025716;28;20222;-75
2022/11/11 05:32:54;;;;;;;59.10;32.73;;;;;;;6.74;86.73;98078.25;5026679;28;20224;-74
2022/11/11 05:35:40;;;;;;;56.20;30.57;;;;;;;6.92;86.90;98083.13;5026346;28;20322;-74
2022/11/11 05:38:25;;;;;;;63.73;32.07;;;;;;;6.94;87.06;98081.38;5025830;28;20198;-74
2022/11/11 05:41:10;;;;;;;52.60;30.77;;;;;;;7.18;86.24;98078.41;5058653;28;20203;-75
2022/11/11 05:43:56;;;;;;;59.93;32.90;;;;;;;7.34;85.19;98088.47;5025447;28;20704;-74
2022/11/11 05:46:41;;;;;;;60.60;30.90;;;;;;;7.40;84.88;98097.81;5057806;28;20199;-75
2022/11/11 05:49:27;;;;;;;57.70;31.53;;;;;;;7.55;84.60;98102.72;5039220;28;20321;-75
2022/11/11 05:52:17;;;;;;;56.40;30.27;;;;;;;7.80;83.26;98104.00;5025354;28;20356;-75
2022/11/11 05:55:03;;;;;;;53.97;29.20;;;;;;;7.67;83.21;98099.91;5024740;28;20248;-77
2022/11/11 05:57:48;;;;;;;49.57;29.07;;;;;;;7.67;83.71;98102.50;5026030;28;20203;-77
2022/11/11 06:00:33;;;;;;;51.63;30.60;;;;;;;7.80;82.78;98109.16;5024801;28;20966;-77
2022/11/11 06:03:19;;;;;;;50.97;28.43;;;;;;;7.61;81.54;98089.72;5025897;28;20361;-74
2022/11/11 06:06:04;;;;;;;43.33;26.53;;;;;;;7.55;82.12;98107.88;5026117;28;20195;-77
2022/11/11 06:08:50;;;;;;;48.83;30.07;;;;;;;7.49;82.48;98102.81;5025374;28;20744;-76
2022/11/11 06:11:35;;;;;;;50.10;28.73;;;;;;;7.61;82.52;98114.63;5029426;28;20697;-77
2022/11/11 06:14:20;;;;;;;46.53;29.40;;;;;;;7.72;82.98;98116.16;5028925;28;20346;-77
2022/11/11 06:17:06;;;;;;;49.90;28.90;;;;;;;7.93;82.45;98120.09;5028799;28;20638;-76
2022/11/11 06:19:51;;;;;;;49.67;28.40;;;;;;;8.03;81.39;98121.63;5029874;28;20189;-74
2022/11/11 06:22:55;;;;;;;45.17;27.57;;;;;;;8.00;83.20;98122.53;5028405;28;20703;-77
2022/11/11 06:28:52;;;;;;;43.43;27.57;;;;;;;8.08;83.75;98130.97;5029457;28;20210;-77
2022/11/11 06:31:37;;;;;;;48.57;28.47;;;;;;;8.30;83.60;98130.59;5027052;28;20203;-76
2022/11/11 06:34:23;;;;;;;47.77;28.40;;;;;;;8.47;83.08;98134.56;5029933;28;20542;-75
2022/11/11 06:37:08;;;;;;;48.20;27.17;;;;;;;8.60;83.04;98130.84;5029335;28;20193;-75
2022/11/11 06:39:53;;;;;;;51.10;29.50;;;;;;;8.99;81.73;98142.06;5028084;28;20214;-74
2022/11/11 06:42:38;;;;;;;43.83;27.17;;;;;;;9.05;81.43;98136.75;5028676;28;20601;-74
2022/11/11 06:45:26;;;;;;;41.67;26.37;;;;;;;9.42;81.36;98155.72;5028809;28;20244;-77
2022/11/11 06:48:12;;;;;;;55.57;31.70;;;;;;;9.63;80.52;98146.59;5026737;28;20232;-77
2022/11/11 06:51:02;;;;;;;42.87;25.43;;;;;;;9.91;78.42;98149.38;5029012;28;20575;-75
2022/11/11 06:53:48;;;;;;;43.23;25.90;;;;;;;9.84;79.26;98149.53;5028650;28;20194;-74
2022/11/11 06:56:33;;;;;;;42.63;25.53;;;;;;;10.10;78.80;98154.03;5027895;28;20191;-75
2022/11/11 06:59:19;;;;;;;43.60;27.63;;;;;;;10.38;78.76;98157.63;5028405;28;20194;-74
2022/11/11 07:02:04;;;;;;;44.20;25.23;;;;;;;10.73;77.08;98153.19;5027596;28;20194;-75
2022/11/11 07:04:50;;;;;;;39.23;26.47;;;;;;;11.02;76.58;98155.78;5027834;28;20725;-74
2022/11/11 07:07:35;;;;;;;42.10;27.30;;;;;;;11.00;76.24;98157.56;5028130;28;20206;-75
2022/11/11 07:10:20;;;;;;;41.07;26.17;;;;;;;10.92;76.34;98141.41;5027201;28;20194;-76
2022/11/11 07:13:06;;;;;;;41.97;26.77;;;;;;;10.90;76.94;98150.97;5028144;28;20205;-77
2022/11/11 07:15:52;;;;;;;45.23;26.20;;;;;;;11.05;77.01;98156.53;5028105;28;20205;-77
2022/11/11 07:18:37;;;;;;;41.20;24.70;;;;;;;11.13;76.91;98158.88;5026934;28;20582;-76
2022/11/11 07:21:22;;;;;;;47.30;27.30;;;;;;;11.21;77.17;98162.94;5027686;28;20198;-77
2022/11/11 07:24:07;;;;;;;39.27;26.80;;;;;;;11.28;76.91;98153.25;5027825;28;20300;-77
2022/11/11 07:26:53;;;;;;;43.07;27.50;;;;;;;11.34;76.63;98159.09;5027225;28;20199;-76
2022/11/11 07:29:38;;;;;;;42.20;27.80;;;;;;;11.33;77.47;98169.53;5027961;28;20742;-77
2022/11/11 07:32:24;;;;;;;40.60;26.63;;;;;;;11.36;77.57;98159.91;5027133;28;20319;-75
2022/11/11 07:35:09;;;;;;;45.13;26.63;;;;;;;11.42;76.51;98167.50;5027009;28;20294;-77
2022/11/11 07:37:54;;;;;;;43.00;26.23;;;;;;;11.61;76.72;98164.31;5026893;28;20186;-76
2022/11/11 07:40:39;;;;;;;42.30;25.40;;;;;;;11.69;75.45;98159.75;5026579;28;20625;-76
2022/11/11 07:43:25;;;;;;;52.97;28.10;;;;;;;11.85;75.07;98166.16;5026957;28;20196;-75
2022/11/11 07:46:10;;;;;;;44.90;26.77;;;;;;;11.98;75.42;98177.81;5027330;28;20191;-75
2022/11/11 07:48:56;;;;;;;43.90;27.33;;;;;;;11.97;74.98;98168.34;5025984;28;20230;-74
2022/11/11 07:51:42;;;;;;;45.77;28.60;;;;;;;11.98;74.63;98167.44;5027341;28;20193;-76
2022/11/11 07:54:27;;;;;;;44.77;28.83;;;;;;;12.05;74.80;98140.38;5025728;28;20340;-74
2022/11/11 07:57:13;;;;;;;39.93;26.50;;;;;;;12.33;74.88;98161.91;5026448;28;20228;-76
2022/11/11 07:59:58;;;;;;;34.27;21.60;;;;;;;12.45;74.89;98163.22;5027247;28;20196;-74
2022/11/11 08:02:50;;;;;;;36.20;24.13;;;;;;;12.66;74.25;98158.09;5026746;28;20187;-77
2022/11/11 08:05:40;;;;;;;48.30;27.50;;;;;;;12.71;72.39;98156.19;5026191;28;20215;-76
2022/11/11 08:08:26;;;;;;;43.47;27.70;;;;;;;12.56;72.33;98151.56;5026853;28;20377;-75
2022/11/11 08:11:13;;;;;;;46.83;27.40;;;;;;;12.50;73.55;98156.97;5026179;28;20703;-75
2022/11/11 08:13:59;;;;;;;44.63;27.60;;;;;;;12.51;73.71;98161.25;5052952;28;20338;-75
2022/11/11 08:16:45;;;;;;;56.73;31.90;;;;;;;12.59;72.90;98155.78;5026617;28;21084;-76
2022/11/11 08:19:30;;;;;;;48.87;28.33;;;;;;;12.81;72.59;98162.75;5025929;28;20204;-74
2022/11/11 08:22:15;;;;;;;47.20;26.23;;;;;;;12.70;72.89;98170.09;5026785;28;20330;-75
2022/11/11 08:25:01;;;;;;;45.10;26.87;;;;;;;12.73;72.69;98170.00;5026120;28;20201;-77
2022/11/11 08:27:56;;;;;;;43.30;27.07;;;;;;;12.80;72.76;98178.38;5025131;28;20197;-76
2022/11/11 08:30:41;;;;;;;54.73;28.53;;;;;;;12.74;72.95;98160.41;5026103;28;20198;-76
2022/11/11 08:33:27;;;;;;;50.07;28.60;;;;;;;12.71;72.83;98158.81;5057120;28;20231;-75
2022/11/11 08:36:19;;;;;;;43.83;26.23;;;;;;;12.80;72.97;98160.19;5025389;28;20684;-75
2022/11/11 08:39:06;;;;;;;44.47;26.57;;;;;;;12.90;72.36;98166.78;5026298;28;20205;-76
2022/11/11 08:41:51;;;;;;;47.67;25.83;;;;;;;12.93;72.27;98167.50;5025642;28;20213;-74
2022/11/11 08:44:36;;;;;;;49.13;24.63;;;;;;;12.86;72.36;98158.22;5025032;28;20183;-75
2022/11/11 08:47:23;;;;;;;20.97;12.27;;;;;;;13.07;72.31;98167.88;5025786;28;20243;-75
2022/11/11 08:50:09;;;;;;;14.67;9.50;;;;;;;13.55;71.14;98167.72;5025123;28;20267;-75
2022/11/11 08:52:55;;;;;;;7.93;5.50;;;;;;;13.86;68.69;98183.81;5025726;28;20231;-75
2022/11/11 08:55:40;;;;;;;8.97;4.53;;;;;;;13.99;67.72;98178.13;5026301;28;20214;-76
2022/11/11 08:58:26;;;;;;;8.03;4.20;;;;;;;14.10;67.09;98181.94;5024950;28;20200;-75
2022/11/11 09:01:13;;;;;;;5.57;3.63;;;;;;;14.23;65.47;98188.34;5025705;28;20249;-75
2022/11/11 09:03:59;;;;;;;4.10;3.00;;;;;;;14.27;64.87;98192.53;5025925;28;20197;-75
2022/11/11 09:07:06;;;;;;;2.87;1.90;;;;;;;14.25;64.39;98196.97;5024677;28;20190;-76
2022/11/11 09:09:52;;;;;;;4.50;2.33;;;;;;;14.30;65.68;98192.41;5025421;28;20233;-75
2022/11/11 09:12:38;;;;;;;5.73;3.73;;;;;;;14.28;66.51;98194.25;5057758;28;20296;-78
2022/11/11 09:15:25;;;;;;;4.40;2.13;;;;;;;14.23;66.25;98188.34;5024651;28;20253;-75
2022/11/11 09:18:11;;;;;;;1.90;1.70;;;;;;;14.13;67.58;98194.00;5057753;28;20194;-77
2022/11/11 09:20:59;;;;;;;3.23;2.57;;;;;;;14.14;69.04;98190.47;5057640;28;20225;-78
2022/11/11 09:23:45;;;;;;;3.13;2.30;;;;;;;14.10;69.56;98181.09;5024921;28;20224;-77
2022/11/11 09:26:30;;;;;;;2.10;1.90;;;;;;;14.05;69.22;98188.28;5026170;28;20201;-77
2022/11/11 09:29:17;;;;;;;4.23;2.00;;;;;;;14.02;69.50;98193.59;5024162;28;20237;-78
2022/11/11 09:32:03;;;;;;;4.00;1.90;;;;;;;13.85;68.24;98186.47;5024980;28;20232;-76
2022/11/11 09:34:48;;;;;;;1.97;1.77;;;;;;;13.76;68.72;98187.72;5025491;28;20727;-76
2022/11/11 09:37:34;;;;;;;2.83;1.60;;;;;;;13.59;68.66;98181.47;5024778;28;20632;-77
2022/11/11 09:40:22;;;;;;;3.80;1.80;;;;;;;13.53;69.09;98166.09;5025336;28;20667;-77
2022/11/11 09:43:34;;;;;;;6.13;1.73;;;;;;;13.50;69.00;98177.47;5025700;28;20666;-77
2022/11/11 09:46:19;;;;;;;3.77;1.50;;;;;;;13.42;68.47;98173.47;5060103;28;20201;-76
2022/11/11 09:49:46;;;;;;;3.10;1.27;;;;;;;13.35;68.35;98169.41;5029029;28;20217;-76
2022/11/11 09:52:39;;;;;;;7.53;1.50;;;;;;;13.33;68.69;98177.28;5029031;28;20184;-77
2022/11/11 09:55:32;;;;;;;5.30;1.80;;;;;;;13.29;69.92;98180.06;5028525;28;20201;-76
2022/11/11 09:58:27;;;;;;;2.70;1.57;;;;;;;13.24;69.11;98161.16;5028505;28;20710;-75
2022/11/11 10:01:20;;;;;;;2.17;1.47;;;;;;;13.20;69.46;98176.06;5029237;28;20265;-75
2022/11/11 10:04:24;;;;;;;2.83;1.10;;;;;;;13.22;68.73;98181.19;5028141;28;20288;-74
2022/11/11 10:07:25;;;;;;;2.43;1.60;;;;;;;13.25;69.39;98170.69;5027885;28;20692;-74
2022/11/11 10:10:15;;;;;;;2.07;1.40;;;;;;;13.13;69.59;98153.78;5028517;28;20236;-76
2022/11/11 10:13:01;;;;;;;2.33;1.50;;;;;;;13.20;70.52;98178.66;5028714;28;20187;-74
2022/11/11 10:16:13;;;;;;;2.20;1.63;;;;;;;13.20;70.96;98175.19;5027993;28;20237;-75
2022/11/11 10:19:17;;;;;;;2.53;2.10;;;;;;;12.99;71.30;98135.22;5028695;28;20203;-75
2022/11/11 10:22:20;;;;;;;3.30;2.30;;;;;;;13.16;72.04;98163.22;5028573;28;20200;-76
2022/11/11 10:25:11;;;;;;;2.53;1.80;;;;;;;13.23;71.89;98156.88;5027640;28;20187;-76
2022/11/11 10:27:59;;;;;;;4.90;2.87;;;;;;;13.28;72.92;98153.19;5028812;28;20195;-77
2022/11/11 10:30:47;;;;;;;2.83;2.20;;;;;;;13.25;73.16;98142.06;5027605;28;20219;-75
2022/11/11 10:33:40;;;;;;;3.30;2.30;;;;;;;13.27;73.19;98166.25;5027406;28;20240;-75
2022/11/11 10:36:29;;;;;;;3.83;2.40;;;;;;;13.12;73.15;98159.03;5028791;28;20203;-74
2022/11/11 10:39:30;;;;;;;4.07;3.30;;;;;;;13.13;73.37;98163.34;5060491;28;20642;-75
2022/11/11 10:42:17;;;;;;;3.73;3.00;;;;;;;13.05;73.41;98166.22;5027415;28;21182;-75
2022/11/11 10:45:20;;;;;;;3.80;2.70;;;;;;;13.11;73.73;98160.78;5028408;28;20321;-74
2022/11/11 10:48:08;;;;;;;3.93;2.50;;;;;;;13.09;73.05;98165.19;5040871;28;20201;-73
2022/11/11 10:50:58;;;;;;;5.43;3.20;;;;;;;13.05;73.49;98146.28;5027354;28;20255;-74
2022/11/11 10:53:55;;;;;;;4.73;2.80;;;;;;;13.05;73.13;98154.06;5027836;28;20732;-75
2022/11/11 10:57:32;;;;;;;3.47;2.70;;;;;;;13.05;73.82;98146.28;5027205;28;20193;-75
2022/11/11 11:00:18;;;;;;;4.30;3.07;;;;;;;13.04;73.13;98157.56;5017176;28;20198;-74
2022/11/11 11:03:29;;;;;;;7.07;4.53;;;;;;;13.18;73.33;98153.59;5027340;28;20204;-76
2022/11/11 11:06:24;;;;;;;5.37;3.67;;;;;;;13.05;73.10;98161.88;5028258;28;20179;-75
2022/11/11 11:09:22;;;;;;;5.30;3.33;;;;;;;13.16;73.41;98161.47;5026831;28;20342;-75
2022/11/11 11:12:15;;;;;;;4.30;3.30;;;;;;;13.15;72.87;98166.75;5027312;28;20191;-75
2022/11/11 11:15:05;;;;;;;5.30;3.37;;;;;;;13.15;74.05;98169.34;5027928;28;20204;-77
2022/11/11 11:18:12;;;;;;;5.97;3.00;;;;;;;13.17;73.51;98173.56;5027716;28;20198;-77
2022/11/11 11:21:01;;;;;;;3.60;2.97;;;;;;;13.14;72.20;98171.09;5026982;28;20203;-75
2022/11/11 11:23:46;;;;;;;3.83;2.60;;;;;;;13.02;72.19;98168.91;5027694;28;20203;-75
2022/11/11 11:26:46;;;;;;;3.27;2.57;;;;;;;13.02;72.29;98167.13;5027573;28;20212;-76
2022/11/11 11:29:34;;;;;;;3.67;2.83;;;;;;;13.06;71.92;98167.94;5027123;28;20717;-76
2022/11/11 11:32:27;;;;;;;3.33;2.30;;;;;;;13.17;71.52;98170.13;5059601;28;20232;-75
2022/11/11 11:35:30;;;;;;;3.50;2.40;;;;;;;13.17;71.59;98176.16;5025763;28;20637;-77
2022/11/11 11:38:16;;;;;;;2.17;1.97;;;;;;;13.17;71.62;98165.75;5026091;28;20200;-77
2022/11/11 11:41:02;;;;;;;3.13;2.20;;;;;;;13.15;71.42;98166.75;5027622;28;20215;-75
2022/11/11 11:43:47;;;;;;;2.67;1.87;;;;;;;13.08;71.52;98174.75;5059151;28;20627;-74
2022/11/11 11:46:44;;;;;;;2.27;1.80;;;;;;;13.10;71.50;98187.72;5025458;28;20211;-74
2022/11/11 11:49:56;;;;;;;1.97;1.77;;;;;;;13.04;71.25;98186.16;5027587;28;20223;-76
2022/11/11 11:52:56;;;;;;;3.13;1.80;;;;;;;13.10;72.63;98195.50;5027120;28;20184;-76
2022/11/11 11:55:50;;;;;;;3.33;1.70;;;;;;;13.06;72.43;98183.53;5057986;28;20563;-75
2022/11/11 11:58:40;;;;;;;2.17;1.93;;;;;;;13.12;72.13;98198.06;5027134;28;20270;-76
2022/11/11 12:01:57;;;;;;;3.73;2.40;;;;;;;13.22;71.95;98199.41;5026923;28;20200;-75
2022/11/11 12:05:14;;;;;;;2.90;2.33;;;;;;;13.25;72.82;98194.91;5026501;28;20300;-76
2022/11/11 12:08:05;;;;;;;1.40;1.23;;;;;;;13.21;72.22;98193.34;5026594;28;20203;-76
2022/11/11 12:11:05;;;;;;;3.00;2.50;;;;;;;13.23;72.11;98188.09;5040060;28;20248;-75
2022/11/11 12:14:12;;;;;;;1.90;1.70;;;;;;;13.27;71.28;98195.72;5026380;28;20186;-75
2022/11/11 12:17:07;;;;;;;2.03;1.60;;;;;;;13.24;71.48;98187.19;5038927;28;20226;-79
2022/11/11 12:20:30;;;;;;;1.47;1.37;;;;;;;13.30;70.93;98197.34;5026987;28;20203;-77
2022/11/11 12:23:27;;;;;;;3.20;2.23;;;;;;;13.23;71.35;98195.91;5032357;28;20287;-76
2022/11/11 12:26:33;;;;;;;5.23;2.97;;;;;;;13.27;71.04;98192.28;5057357;28;20195;-76
2022/11/11 12:29:43;;;;;;;3.57;2.37;;;;;;;13.22;71.23;98189.00;5026337;28;20689;-76
2022/11/11 12:32:54;;;;;;;1.90;1.70;;;;;;;13.18;71.41;98190.00;5026900;28;20245;-77
2022/11/11 12:35:55;;;;;;;1.70;1.60;;;;;;;13.22;71.08;98187.25;5045274;28;20196;-76
2022/11/11 12:38:49;;;;;;;2.20;1.43;;;;;;;13.13;71.44;98187.59;5057494;28;20223;-74
2022/11/11 12:41:58;;;;;;;3.33;2.60;;;;;;;13.18;71.06;98203.88;5030256;28;20215;-74
2022/11/11 12:45:04;;;;;;;4.33;2.23;;;;;;;13.09;70.34;98199.00;5025096;28;20207;-75
2022/11/11 12:48:02;;;;;;;4.07;2.90;;;;;;;13.08;70.65;98205.94;5025393;28;20582;-74
2022/11/11 12:50:53;;;;;;;2.33;2.13;;;;;;;13.07;70.20;98200.81;5058419;28;20436;-74
2022/11/11 12:54:12;;;;;;;4.20;2.30;;;;;;;13.06;70.12;98199.13;5039219;28;20196;-77
2022/11/11 12:57:25;;;;;;;2.67;2.27;;;;;;;13.06;69.57;98201.75;5026035;28;20194;-75
2022/11/11 13:00:20;;;;;;;2.37;1.97;;;;;;;12.98;68.50;98206.34;5026003;28;20288;-76
2022/11/11 13:03:36;;;;;;;4.37;2.30;;;;;;;13.00;68.67;98202.75;5026687;28;20593;-76
2022/11/11 13:06:30;;;;;;;2.13;1.93;;;;;;;12.90;68.12;98206.59;5026025;28;20237;-77
2022/11/11 13:09:28;;;;;;;2.13;1.93;;;;;;;12.92;68.71;98196.16;5024096;28;20222;-75
2022/11/11 13:12:22;;;;;;;4.00;2.60;;;;;;;12.97;68.91;98204.63;5026378;28;20189;-76
2022/11/11 13:15:17;;;;;;;2.40;2.00;;;;;;;12.98;67.83;98227.97;5026360;28;20186;-74
2022/11/11 13:18:11;;;;;;;3.53;2.90;;;;;;;12.98;68.18;98214.97;5025102;28;20229;-76
2022/11/11 13:20:57;;;;;;;3.50;2.60;;;;;;;13.01;67.87;98227.88;5030512;28;20670;-76
2022/11/11 13:23:42;;;;;;;3.03;2.20;;;;;;;12.98;67.75;98225.38;5029893;28;20532;-76
2022/11/11 13:26:35;;;;;;;4.90;2.50;;;;;;;13.04;67.53;98217.38;5029125;28;20198;-76
2022/11/11 13:29:39;;;;;;;2.73;1.90;;;;;;;13.12;67.68;98217.13;5030300;28;20565;-75
2022/11/11 13:32:32;;;;;;;10.03;2.30;;;;;;;13.16;67.00;98212.63;5030259;28;20259;-74
2022/11/11 13:35:28;;;;;;;8.97;2.63;;;;;;;13.26;66.40;98219.19;5029146;28;20620;-75
2022/11/11 13:38:34;;;;;;;16.90;3.33;;;;;;;13.21;66.76;98221.13;5029797;28;20644;-76
2022/11/11 13:41:25;;;;;;;5.40;2.00;;;;;;;13.08;65.92;98224.16;5061647;28;20216;-77
2022/11/11 13:44:23;;;;;;;4.97;2.07;;;;;;;12.97;66.39;98213.28;5028752;28;20811;-76
2022/11/11 13:47:18;;;;;;;3.90;2.60;;;;;;;13.01;66.82;98212.25;5028255;28;20219;-76
2022/11/11 13:50:20;;;;;;;7.27;4.07;;;;;;;12.99;67.59;98216.69;5029243;28;20671;-75
2022/11/11 13:53:11;;;;;;;2.00;1.70;;;;;;;12.87;68.12;98224.94;5028424;28;21304;-75
2022/11/11 13:56:02;;;;;;;6.03;2.17;;;;;;;12.74;68.11;98212.41;5028527;28;20676;-73
2022/11/11 13:58:48;;;;;;;4.57;2.87;;;;;;;12.71;68.16;98217.72;5029517;28;20196;-75
2022/11/11 14:01:36;;;;;;;3.40;2.50;;;;;;;12.82;67.84;98226.81;5028353;28;20737;-75
2022/11/11 14:04:27;;;;;;;4.27;2.40;;;;;;;12.78;68.59;98214.84;5029415;28;20208;-75
2022/11/11 14:07:46;;;;;;;4.23;2.80;;;;;;;12.91;68.34;98226.50;5029372;28;20580;-76
2022/11/11 14:10:34;;;;;;;6.10;2.20;;;;;;;12.87;68.08;98235.31;5028613;28;20710;-75
2022/11/11 14:13:22;;;;;;;8.27;3.30;;;;;;;12.89;67.83;98228.31;5028877;28;20689;-75
2022/11/11 14:16:10;;;;;;;5.53;2.80;;;;;;;12.82;68.49;98232.03;5029750;28;20204;-73
2022/11/11 14:18:55;;;;;;;2.53;1.90;;;;;;;12.84;68.15;98239.75;5040972;28;20191;-76
2022/11/11 14:21:54;;;;;;;2.07;1.70;;;;;;;12.66;69.07;98238.69;5029042;28;20599;-76
2022/11/11 14:24:45;;;;;;;2.33;1.53;;;;;;;12.48;68.92;98235.84;5029003;28;20204;-76
2022/11/11 14:27:32;;;;;;;4.63;2.07;;;;;;;12.49;69.40;98235.81;5028180;28;20222;-74
2022/11/11 14:30:38;;;;;;;2.80;1.80;;;;;;;12.48;69.74;98241.91;5027969;28;21034;-75
2022/11/11 14:33:32;;;;;;;4.17;3.30;;;;;;;12.52;69.79;98240.91;5028944;28;20756;-76
2022/11/11 14:36:28;;;;;;;2.87;2.10;;;;;;;12.41;70.45;98237.81;5027822;28;20180;-75